sensor_id;sensor_type;location;lat;lon;timestamp;temperature;humidity
7004;DHT22;3542;48.812;9.146;2022-09-24T00:01:12;10.50;99.90
7004;DHT22;3542;48.812;9.146;2022-09-24T00:03:39;10.60;99.90
7004;DHT22;3542;48.812;9.146;2022-09-24T00:06:07;10.60;99.90
7004;DHT22;3542;48.812;9.146;2022-09-24T00:08:34;10.60;99.90
7004;DHT22;3542;48.812;9.146;2022-09-24T00:11:05;10.60;99.90
7004;DHT22;3542;48.812;9.146;2022-09-24T00:13:31;10.60;99.90
7004;DHT22;3542;48.812;9.146;2022-09-24T00:16:02;10.70;99.90
7004;DHT22;3542;48.812;9.146;2022-09-24T00:18:28;10.70;99.90
7004;DHT22;3542;48.812;9.146;2022-09-24T00:20:54;10.70;99.90
7004;DHT22;3542;48.812;9.146;2022-09-24T00:23:19;10.70;99.90
7004;DHT22;3542;48.812;9.146;2022-09-24T00:25:46;10.70;99.90
7004;DHT22;3542;48.812;9.146;2022-09-24T00:28:31;10.70;99.90
7004;DHT22;3542;48.812;9.146;2022-09-24T00:30:58;10.80;99.90
7004;DHT22;3542;48.812;9.146;2022-09-24T00:33:25;10.80;99.90
7004;DHT22;3542;48.812;9.146;2022-09-24T00:35:52;10.80;99.90
7004;DHT22;3542;48.812;9.146;2022-09-24T00:38:22;10.90;99.90
7004;DHT22;3542;48.812;9.146;2022-09-24T00:40:48;10.80;99.90
7004;DHT22;3542;48.812;9.146;2022-09-24T00:43:28;10.80;99.90
7004;DHT22;3542;48.812;9.146;2022-09-24T00:45:59;10.80;99.90
7004;DHT22;3542;48.812;9.146;2022-09-24T00:48:26;10.80;99.90
7004;DHT22;3542;48.812;9.146;2022-09-24T00:50:52;10.80;99.90
7004;DHT22;3542;48.812;9.146;2022-09-24T00:53:21;10.80;99.90
7004;DHT22;3542;48.812;9.146;2022-09-24T00:55:50;10.80;99.90
7004;DHT22;3542;48.812;9.146;2022-09-24T00:58:18;10.70;99.90
7004;DHT22;3542;48.812;9.146;2022-09-24T02:31:26;9.70;99.90
7004;DHT22;3542;48.812;9.146;2022-09-24T02:33:52;9.80;99.90
7004;DHT22;3542;48.812;9.146;2022-09-24T02:36:37;9.80;99.90
7004;DHT22;3542;48.812;9.146;2022-09-24T02:39:04;9.80;99.90
7004;DHT22;3542;48.812;9.146;2022-09-24T02:41:30;9.80;99.90
7004;DHT22;3542;48.812;9.146;2022-09-24T02:43:56;9.80;99.90
7004;DHT22;3542;48.812;9.146;2022-09-24T02:46:22;9.80;99.90
7004;DHT22;3542;48.812;9.146;2022-09-24T02:48:48;9.90;99.90
7004;DHT22;3542;48.812;9.146;2022-09-24T02:51:14;9.90;99.90
7004;DHT22;3542;48.812;9.146;2022-09-24T02:53:39;9.90;99.90
7004;DHT22;3542;48.812;9.146;2022-09-24T02:56:05;9.90;99.90
7004;DHT22;3542;48.812;9.146;2022-09-24T02:58:31;9.90;99.90
7004;DHT22;3542;48.812;9.146;2022-09-24T03:00:57;10.00;99.90
7004;DHT22;3542;48.812;9.146;2022-09-24T03:03:23;9.90;99.90
7004;DHT22;3542;48.812;9.146;2022-09-24T03:05:50;10.00;99.90
7004;DHT22;3542;48.812;9.146;2022-09-24T03:08:17;10.00;99.90
7004;DHT22;3542;48.812;9.146;2022-09-24T03:10:43;10.00;99.90
7004;DHT22;3542;48.812;9.146;2022-09-24T03:13:08;10.00;99.90
7004;DHT22;3542;48.812;9.146;2022-09-24T03:15:35;10.00;99.90
7004;DHT22;3542;48.812;9.146;2022-09-24T03:18:00;10.00;99.90
7004;DHT22;3542;48.812;9.146;2022-09-24T03:20:26;10.00;99.90
7004;DHT22;3542;48.812;9.146;2022-09-24T03:22:52;10.00;99.90
7004;DHT22;3542;48.812;9.146;2022-09-24T03:25:18;10.00;99.90
7004;DHT22;3542;48.812;9.146;2022-09-24T03:27:44;10.10;99.90
7004;DHT22;3542;48.812;9.146;2022-09-24T03:30:10;10.10;99.90
7004;DHT22;3542;48.812;9.146;2022-09-24T03:32:54;10.20;99.90
7004;DHT22;3542;48.812;9.146;2022-09-24T03:35:20;10.20;99.90
7004;DHT22;3542;48.812;9.146;2022-09-24T03:37:45;10.20;99.90
7004;DHT22;3542;48.812;9.146;2022-09-24T03:40:11;10.20;99.90
7004;DHT22;3542;48.812;9.146;2022-09-24T03:42:37;10.10;99.90
7004;DHT22;3542;48.812;9.146;2022-09-24T03:45:03;10.20;99.90
7004;DHT22;3542;48.812;9.146;2022-09-24T03:47:29;10.20;99.90
7004;DHT22;3542;48.812;9.146;2022-09-24T03:49:55;10.20;99.90
7004;DHT22;3542;48.812;9.146;2022-09-24T03:52:20;10.20;99.90
7004;DHT22;3542;48.812;9.146;2022-09-24T03:54:46;10.20;99.90
7004;DHT22;3542;48.812;9.146;2022-09-24T03:57:11;10.30;99.90
7004;DHT22;3542;48.812;9.146;2022-09-24T03:59:40;10.30;99.90
7004;DHT22;3542;48.812;9.146;2022-09-24T04:02:06;10.30;99.90
7004;DHT22;3542;48.812;9.146;2022-09-24T04:04:32;10.30;99.90
7004;DHT22;3542;48.812;9.146;2022-09-24T04:06:57;10.30;99.90
7004;DHT22;3542;48.812;9.146;2022-09-24T04:09:23;10.30;99.90
7004;DHT22;3542;48.812;9.146;2022-09-24T04:11:48;10.30;99.90
7004;DHT22;3542;48.812;9.146;2022-09-24T04:14:17;10.30;99.90
7004;DHT22;3542;48.812;9.146;2022-09-24T04:16:43;10.30;99.90
7004;DHT22;3542;48.812;9.146;2022-09-24T04:19:10;10.40;99.90
7004;DHT22;3542;48.812;9.146;2022-09-24T04:21:36;10.40;99.90
7004;DHT22;3542;48.812;9.146;2022-09-24T04:24:02;10.40;99.90
7004;DHT22;3542;48.812;9.146;2022-09-24T04:26:28;10.40;99.90
7004;DHT22;3542;48.812;9.146;2022-09-24T04:28:53;10.40;99.90
7004;DHT22;3542;48.812;9.146;2022-09-24T04:31:19;10.50;99.90
7004;DHT22;3542;48.812;9.146;2022-09-24T04:33:44;10.50;99.90
7004;DHT22;3542;48.812;9.146;2022-09-24T04:36:10;10.50;99.90
7004;DHT22;3542;48.812;9.146;2022-09-24T04:38:35;10.50;99.90
7004;DHT22;3542;48.812;9.146;2022-09-24T04:41:08;10.60;99.90
7004;DHT22;3542;48.812;9.146;2022-09-24T04:43:34;10.60;99.90
7004;DHT22;3542;48.812;9.146;2022-09-24T04:46:01;10.60;99.90
7004;DHT22;3542;48.812;9.146;2022-09-24T04:48:28;10.60;99.90
7004;DHT22;3542;48.812;9.146;2022-09-24T04:50:54;10.60;99.90
7004;DHT22;3542;48.812;9.146;2022-09-24T04:53:19;10.60;99.90
7004;DHT22;3542;48.812;9.146;2022-09-24T04:55:46;10.60;99.90
7004;DHT22;3542;48.812;9.146;2022-09-24T04:58:11;10.60;99.90
7004;DHT22;3542;48.812;9.146;2022-09-24T05:00:37;10.60;99.90
7004;DHT22;3542;48.812;9.146;2022-09-24T05:03:03;10.60;99.90
7004;DHT22;3542;48.812;9.146;2022-09-24T05:05:30;10.70;99.90
7004;DHT22;3542;48.812;9.146;2022-09-24T05:07:56;10.60;99.90
7004;DHT22;3542;48.812;9.146;2022-09-24T05:10:26;10.60;99.90
7004;DHT22;3542;48.812;9.146;2022-09-24T05:12:52;10.60;99.90
7004;DHT22;3542;48.812;9.146;2022-09-24T05:15:18;10.60;99.90
7004;DHT22;3542;48.812;9.146;2022-09-24T05:17:45;10.60;99.90
7004;DHT22;3542;48.812;9.146;2022-09-24T05:20:11;10.60;99.90
7004;DHT22;3542;48.812;9.146;2022-09-24T05:22:41;10.60;99.90
7004;DHT22;3542;48.812;9.146;2022-09-24T05:25:07;10.60;99.90
7004;DHT22;3542;48.812;9.146;2022-09-24T05:27:32;10.60;99.90
7004;DHT22;3542;48.812;9.146;2022-09-24T05:29:58;10.60;99.90
7004;DHT22;3542;48.812;9.146;2022-09-24T05:32:25;10.60;99.90
7004;DHT22;3542;48.812;9.146;2022-09-24T05:34:50;10.60;99.90
7004;DHT22;3542;48.812;9.146;2022-09-24T05:37:16;10.60;99.90
7004;DHT22;3542;48.812;9.146;2022-09-24T05:39:42;10.60;99.90
7004;DHT22;3542;48.812;9.146;2022-09-24T05:42:11;10.70;99.90
7004;DHT22;3542;48.812;9.146;2022-09-24T05:44:40;10.70;99.90
7004;DHT22;3542;48.812;9.146;2022-09-24T05:47:07;10.70;99.90
7004;DHT22;3542;48.812;9.146;2022-09-24T05:49:32;10.70;99.90
7004;DHT22;3542;48.812;9.146;2022-09-24T05:51:58;10.80;99.90
7004;DHT22;3542;48.812;9.146;2022-09-24T05:54:23;10.80;99.90
7004;DHT22;3542;48.812;9.146;2022-09-24T05:56:49;10.80;99.90
7004;DHT22;3542;48.812;9.146;2022-09-24T05:59:15;10.90;99.90
7004;DHT22;3542;48.812;9.146;2022-09-24T06:01:40;11.00;99.90
7004;DHT22;3542;48.812;9.146;2022-09-24T06:04:06;11.10;99.90
7004;DHT22;3542;48.812;9.146;2022-09-24T06:06:31;11.20;99.90
7004;DHT22;3542;48.812;9.146;2022-09-24T06:08:57;11.30;99.90
7004;DHT22;3542;48.812;9.146;2022-09-24T06:11:23;11.30;99.90
7004;DHT22;3542;48.812;9.146;2022-09-24T06:13:49;11.50;99.90
7004;DHT22;3542;48.812;9.146;2022-09-24T06:16:15;11.50;99.90
7004;DHT22;3542;48.812;9.146;2022-09-24T06:18:42;11.60;99.90
7004;DHT22;3542;48.812;9.146;2022-09-24T06:21:13;11.60;99.90
7004;DHT22;3542;48.812;9.146;2022-09-24T06:23:39;11.70;99.90
7004;DHT22;3542;48.812;9.146;2022-09-24T06:26:07;11.80;99.90
7004;DHT22;3542;48.812;9.146;2022-09-24T06:28:35;11.90;99.90
7004;DHT22;3542;48.812;9.146;2022-09-24T06:31:01;11.90;99.90
7004;DHT22;3542;48.812;9.146;2022-09-24T06:33:27;12.00;99.90
7004;DHT22;3542;48.812;9.146;2022-09-24T06:35:53;12.00;99.90
7004;DHT22;3542;48.812;9.146;2022-09-24T06:38:18;12.10;99.90
7004;DHT22;3542;48.812;9.146;2022-09-24T06:40:45;12.20;99.90
7004;DHT22;3542;48.812;9.146;2022-09-24T06:43:13;12.20;99.90
7004;DHT22;3542;48.812;9.146;2022-09-24T06:45:40;12.30;99.90
7004;DHT22;3542;48.812;9.146;2022-09-24T06:48:09;12.30;99.90
7004;DHT22;3542;48.812;9.146;2022-09-24T06:50:39;12.40;99.90
7004;DHT22;3542;48.812;9.146;2022-09-24T06:53:05;12.40;99.90
7004;DHT22;3542;48.812;9.146;2022-09-24T06:55:31;12.50;99.90
7004;DHT22;3542;48.812;9.146;2022-09-24T06:58:06;12.50;99.90
7004;DHT22;3542;48.812;9.146;2022-09-24T07:00:32;12.60;99.90
7004;DHT22;3542;48.812;9.146;2022-09-24T07:02:58;12.60;99.90
7004;DHT22;3542;48.812;9.146;2022-09-24T07:05:24;12.60;99.90
7004;DHT22;3542;48.812;9.146;2022-09-24T07:07:49;12.70;99.90
7004;DHT22;3542;48.812;9.146;2022-09-24T07:10:15;12.80;99.90
7004;DHT22;3542;48.812;9.146;2022-09-24T07:12:41;12.90;99.90
7004;DHT22;3542;48.812;9.146;2022-09-24T07:15:07;13.00;99.90
7004;DHT22;3542;48.812;9.146;2022-09-24T07:17:33;12.90;99.90
7004;DHT22;3542;48.812;9.146;2022-09-24T07:19:59;13.00;99.90
7004;DHT22;3542;48.812;9.146;2022-09-24T07:22:24;13.10;99.90
7004;DHT22;3542;48.812;9.146;2022-09-24T07:24:50;13.20;99.90
7004;DHT22;3542;48.812;9.146;2022-09-24T07:27:16;13.30;99.90
7004;DHT22;3542;48.812;9.146;2022-09-24T07:29:43;13.30;99.90
7004;DHT22;3542;48.812;9.146;2022-09-24T07:32:09;13.40;99.90
7004;DHT22;3542;48.812;9.146;2022-09-24T07:34:34;13.40;99.90
7004;DHT22;3542;48.812;9.146;2022-09-24T07:37:00;13.50;99.90
7004;DHT22;3542;48.812;9.146;2022-09-24T07:39:25;13.50;99.90
7004;DHT22;3542;48.812;9.146;2022-09-24T07:41:51;13.60;99.90
7004;DHT22;3542;48.812;9.146;2022-09-24T07:44:18;13.70;99.90
7004;DHT22;3542;48.812;9.146;2022-09-24T07:46:46;13.80;99.90
7004;DHT22;3542;48.812;9.146;2022-09-24T07:49:12;13.90;99.90
7004;DHT22;3542;48.812;9.146;2022-09-24T07:51:38;13.90;99.90
7004;DHT22;3542;48.812;9.146;2022-09-24T07:54:03;13.90;99.90
7004;DHT22;3542;48.812;9.146;2022-09-24T07:56:29;14.00;99.90
7004;DHT22;3542;48.812;9.146;2022-09-24T07:58:56;14.10;99.90
7004;DHT22;3542;48.812;9.146;2022-09-24T08:01:22;14.10;99.90
7004;DHT22;3542;48.812;9.146;2022-09-24T08:03:50;14.20;99.90
7004;DHT22;3542;48.812;9.146;2022-09-24T08:06:17;14.30;99.90
7004;DHT22;3542;48.812;9.146;2022-09-24T08:08:42;14.50;99.90
7004;DHT22;3542;48.812;9.146;2022-09-24T08:11:10;14.50;99.90
7004;DHT22;3542;48.812;9.146;2022-09-24T08:13:37;14.50;99.90
7004;DHT22;3542;48.812;9.146;2022-09-24T08:16:03;14.60;99.90
7004;DHT22;3542;48.812;9.146;2022-09-24T08:18:30;14.70;99.90
7004;DHT22;3542;48.812;9.146;2022-09-24T08:21:07;14.70;99.90
7004;DHT22;3542;48.812;9.146;2022-09-24T08:23:37;14.90;99.90
7004;DHT22;3542;48.812;9.146;2022-09-24T08:26:03;15.10;99.90
7004;DHT22;3542;48.812;9.146;2022-09-24T08:28:29;15.20;99.90
7004;DHT22;3542;48.812;9.146;2022-09-24T08:31:00;15.40;99.90
7004;DHT22;3542;48.812;9.146;2022-09-24T08:33:26;15.60;99.90
7004;DHT22;3542;48.812;9.146;2022-09-24T08:35:52;15.70;99.90
7004;DHT22;3542;48.812;9.146;2022-09-24T08:38:18;15.80;99.90
7004;DHT22;3542;48.812;9.146;2022-09-24T08:40:57;15.90;99.90
7004;DHT22;3542;48.812;9.146;2022-09-24T08:46:33;16.10;99.90
7004;DHT22;3542;48.812;9.146;2022-09-24T08:49:24;16.40;99.90
7004;DHT22;3542;48.812;9.146;2022-09-24T08:52:35;16.70;99.90
7004;DHT22;3542;48.812;9.146;2022-09-24T08:55:59;16.80;99.90
7004;DHT22;3542;48.812;9.146;2022-09-24T08:58:15;16.90;99.90
7004;DHT22;3542;48.812;9.146;2022-09-24T09:03:53;17.20;99.90
7004;DHT22;3542;48.812;9.146;2022-09-24T09:06:54;17.20;99.90
7004;DHT22;3542;48.812;9.146;2022-09-24T09:09:25;17.20;99.90
7004;DHT22;3542;48.812;9.146;2022-09-24T09:12:04;17.40;99.90
7004;DHT22;3542;48.812;9.146;2022-09-24T09:14:42;17.50;99.90
7004;DHT22;3542;48.812;9.146;2022-09-24T09:17:28;17.80;99.90
7004;DHT22;3542;48.812;9.146;2022-09-24T09:19:58;17.90;99.90
7004;DHT22;3542;48.812;9.146;2022-09-24T09:22:30;18.10;99.90
7004;DHT22;3542;48.812;9.146;2022-09-24T09:25:03;18.10;99.90
7004;DHT22;3542;48.812;9.146;2022-09-24T09:27:35;18.20;99.90
7004;DHT22;3542;48.812;9.146;2022-09-24T09:30:03;18.30;99.90
7004;DHT22;3542;48.812;9.146;2022-09-24T09:32:48;18.40;99.90
7004;DHT22;3542;48.812;9.146;2022-09-24T09:41:18;18.40;99.90
7004;DHT22;3542;48.812;9.146;2022-09-24T09:43:45;18.20;99.90
7004;DHT22;3542;48.812;9.146;2022-09-24T09:46:15;18.00;99.90
7004;DHT22;3542;48.812;9.146;2022-09-24T09:48:45;17.90;99.90
7004;DHT22;3542;48.812;9.146;2022-09-24T09:51:17;17.70;99.90
7004;DHT22;3542;48.812;9.146;2022-09-24T09:54:00;17.70;99.90
7004;DHT22;3542;48.812;9.146;2022-09-24T09:56:37;17.50;99.90
7004;DHT22;3542;48.812;9.146;2022-09-24T10:01:41;17.00;99.90
7004;DHT22;3542;48.812;9.146;2022-09-24T10:04:39;16.80;99.90
7004;DHT22;3542;48.812;9.146;2022-09-24T10:07:15;16.60;99.90
7004;DHT22;3542;48.812;9.146;2022-09-24T10:09:42;16.40;99.90
7004;DHT22;3542;48.812;9.146;2022-09-24T10:12:20;16.40;99.90
7004;DHT22;3542;48.812;9.146;2022-09-24T10:15:13;16.30;99.90
7004;DHT22;3542;48.812;9.146;2022-09-24T10:17:40;16.30;99.90
7004;DHT22;3542;48.812;9.146;2022-09-24T10:22:48;16.20;99.90
7004;DHT22;3542;48.812;9.146;2022-09-24T10:25:26;16.10;99.90
7004;DHT22;3542;48.812;9.146;2022-09-24T10:28:16;16.20;99.90
7004;DHT22;3542;48.812;9.146;2022-09-24T10:31:02;16.20;99.90
7004;DHT22;3542;48.812;9.146;2022-09-24T10:33:36;16.20;99.90
7004;DHT22;3542;48.812;9.146;2022-09-24T10:36:20;16.20;99.90
7004;DHT22;3542;48.812;9.146;2022-09-24T10:38:47;16.30;99.90
7004;DHT22;3542;48.812;9.146;2022-09-24T10:41:33;16.30;99.90
7004;DHT22;3542;48.812;9.146;2022-09-24T10:44:07;16.30;99.90
7004;DHT22;3542;48.812;9.146;2022-09-24T10:47:06;16.30;99.90
7004;DHT22;3542;48.812;9.146;2022-09-24T10:52:29;16.50;99.90
7004;DHT22;3542;48.812;9.146;2022-09-24T11:07:19;17.30;99.90
7004;DHT22;3542;48.812;9.146;2022-09-24T11:15:42;17.80;99.90
7004;DHT22;3542;48.812;9.146;2022-09-24T11:30:18;17.70;99.90
7004;DHT22;3542;48.812;9.146;2022-09-24T11:35:31;17.70;99.90
7004;DHT22;3542;48.812;9.146;2022-09-24T11:41:01;17.60;99.90
7004;DHT22;3542;48.812;9.146;2022-09-24T11:46:10;17.50;99.90
7004;DHT22;3542;48.812;9.146;2022-09-24T11:51:47;17.50;99.90
7004;DHT22;3542;48.812;9.146;2022-09-24T11:54:30;17.40;99.90
7004;DHT22;3542;48.812;9.146;2022-09-24T11:57:47;17.40;99.90
7004;DHT22;3542;48.812;9.146;2022-09-24T11:59:49;17.30;99.90
7004;DHT22;3542;48.812;9.146;2022-09-24T12:02:39;17.40;99.90
7004;DHT22;3542;48.812;9.146;2022-09-24T12:05:11;17.20;99.90
7004;DHT22;3542;48.812;9.146;2022-09-24T12:07:48;17.30;99.90
7004;DHT22;3542;48.812;9.146;2022-09-24T12:10:34;17.30;99.90
7004;DHT22;3542;48.812;9.146;2022-09-24T12:13:14;17.30;99.90
7004;DHT22;3542;48.812;9.146;2022-09-24T12:15:59;17.20;99.90
7004;DHT22;3542;48.812;9.146;2022-09-24T12:18:55;17.10;99.90
7004;DHT22;3542;48.812;9.146;2022-09-24T12:21:41;17.00;99.90
7004;DHT22;3542;48.812;9.146;2022-09-24T12:24:28;16.80;99.90
7004;DHT22;3542;48.812;9.146;2022-09-24T12:26:56;16.60;99.90
7004;DHT22;3542;48.812;9.146;2022-09-24T12:29:56;16.40;99.90
7004;DHT22;3542;48.812;9.146;2022-09-24T12:33:05;16.10;99.90
7004;DHT22;3542;48.812;9.146;2022-09-24T12:38:43;15.80;99.90
7004;DHT22;3542;48.812;9.146;2022-09-24T12:44:04;15.50;99.90
7004;DHT22;3542;48.812;9.146;2022-09-24T12:46:41;15.50;99.90
7004;DHT22;3542;48.812;9.146;2022-09-24T12:51:52;15.40;99.90
7004;DHT22;3542;48.812;9.146;2022-09-24T12:54:33;15.30;99.90
7004;DHT22;3542;48.812;9.146;2022-09-24T12:59:52;15.30;99.90
7004;DHT22;3542;48.812;9.146;2022-09-24T13:02:21;15.40;99.90
7004;DHT22;3542;48.812;9.146;2022-09-24T13:05:14;15.40;99.90
7004;DHT22;3542;48.812;9.146;2022-09-24T13:07:42;15.40;99.90
7004;DHT22;3542;48.812;9.146;2022-09-24T13:12:40;15.50;99.90
7004;DHT22;3542;48.812;9.146;2022-09-24T13:15:18;15.60;99.90
7004;DHT22;3542;48.812;9.146;2022-09-24T13:17:46;15.70;99.90
7004;DHT22;3542;48.812;9.146;2022-09-24T13:20:23;15.70;99.90
7004;DHT22;3542;48.812;9.146;2022-09-24T13:22:59;15.80;99.90
7004;DHT22;3542;48.812;9.146;2022-09-24T13:25:35;15.70;99.90
7004;DHT22;3542;48.812;9.146;2022-09-24T13:28:17;15.70;99.90
7004;DHT22;3542;48.812;9.146;2022-09-24T13:30:47;15.60;99.90
7004;DHT22;3542;48.812;9.146;2022-09-24T13:38:35;15.50;99.90
7004;DHT22;3542;48.812;9.146;2022-09-24T13:41:21;15.60;99.90
7004;DHT22;3542;48.812;9.146;2022-09-24T13:43:55;15.70;99.90
7004;DHT22;3542;48.812;9.146;2022-09-24T13:46:23;15.90;99.90
7004;DHT22;3542;48.812;9.146;2022-09-24T13:48:54;16.00;99.90
7004;DHT22;3542;48.812;9.146;2022-09-24T13:51:26;16.10;99.90
7004;DHT22;3542;48.812;9.146;2022-09-24T13:54:02;16.10;99.90
7004;DHT22;3542;48.812;9.146;2022-09-24T13:56:29;16.30;99.90
7004;DHT22;3542;48.812;9.146;2022-09-24T13:59:04;16.40;99.90
7004;DHT22;3542;48.812;9.146;2022-09-24T14:01:35;16.40;99.90
7004;DHT22;3542;48.812;9.146;2022-09-24T14:04:06;16.40;99.90
7004;DHT22;3542;48.812;9.146;2022-09-24T14:07:00;16.40;99.90
7004;DHT22;3542;48.812;9.146;2022-09-24T14:09:31;16.20;99.90
7004;DHT22;3542;48.812;9.146;2022-09-24T14:12:00;16.30;99.90
7004;DHT22;3542;48.812;9.146;2022-09-24T14:14:33;16.30;99.90
7004;DHT22;3542;48.812;9.146;2022-09-24T14:17:06;16.30;99.90
7004;DHT22;3542;48.812;9.146;2022-09-24T14:19:32;16.30;99.90
7004;DHT22;3542;48.812;9.146;2022-09-24T14:21:59;16.30;99.90
7004;DHT22;3542;48.812;9.146;2022-09-24T14:24:32;16.30;99.90
7004;DHT22;3542;48.812;9.146;2022-09-24T14:29:41;16.30;99.90
7004;DHT22;3542;48.812;9.146;2022-09-24T14:32:28;16.20;99.90
7004;DHT22;3542;48.812;9.146;2022-09-24T14:35:01;16.20;99.90
7004;DHT22;3542;48.812;9.146;2022-09-24T14:37:34;16.10;99.90
7004;DHT22;3542;48.812;9.146;2022-09-24T14:40:06;16.20;99.90
7004;DHT22;3542;48.812;9.146;2022-09-24T14:42:40;16.20;99.90
7004;DHT22;3542;48.812;9.146;2022-09-24T14:45:09;16.20;99.90
7004;DHT22;3542;48.812;9.146;2022-09-24T14:47:36;16.20;99.90
7004;DHT22;3542;48.812;9.146;2022-09-24T14:50:02;16.20;99.90
7004;DHT22;3542;48.812;9.146;2022-09-24T14:52:34;16.20;99.90
7004;DHT22;3542;48.812;9.146;2022-09-24T14:55:20;16.20;99.90
7004;DHT22;3542;48.812;9.146;2022-09-24T14:57:48;16.20;99.90
7004;DHT22;3542;48.812;9.146;2022-09-24T15:03:10;16.20;99.90
7004;DHT22;3542;48.812;9.146;2022-09-24T15:05:37;16.10;99.90
7004;DHT22;3542;48.812;9.146;2022-09-24T15:10:54;16.10;99.90
7004;DHT22;3542;48.812;9.146;2022-09-24T15:13:26;16.10;99.90
7004;DHT22;3542;48.812;9.146;2022-09-24T15:16:26;16.10;99.90
7004;DHT22;3542;48.812;9.146;2022-09-24T15:19:15;16.10;99.90
7004;DHT22;3542;48.812;9.146;2022-09-24T15:21:42;16.10;99.90
7004;DHT22;3542;48.812;9.146;2022-09-24T15:24:08;16.10;99.90
7004;DHT22;3542;48.812;9.146;2022-09-24T15:26:35;16.10;99.90
7004;DHT22;3542;48.812;9.146;2022-09-24T15:29:01;16.20;99.90
7004;DHT22;3542;48.812;9.146;2022-09-24T15:31:27;16.20;99.90
7004;DHT22;3542;48.812;9.146;2022-09-24T15:33:53;16.20;99.90
7004;DHT22;3542;48.812;9.146;2022-09-24T15:36:20;16.20;99.90
7004;DHT22;3542;48.812;9.146;2022-09-24T15:38:50;16.20;99.90
7004;DHT22;3542;48.812;9.146;2022-09-24T15:41:17;16.20;99.90
7004;DHT22;3542;48.812;9.146;2022-09-24T15:43:44;16.20;99.90
7004;DHT22;3542;48.812;9.146;2022-09-24T15:46:10;16.10;99.90
7004;DHT22;3542;48.812;9.146;2022-09-24T15:48:35;16.10;99.90
7004;DHT22;3542;48.812;9.146;2022-09-24T15:51:01;16.10;99.90
7004;DHT22;3542;48.812;9.146;2022-09-24T15:53:28;16.00;99.90
7004;DHT22;3542;48.812;9.146;2022-09-24T15:55:57;16.10;99.90
7004;DHT22;3542;48.812;9.146;2022-09-24T15:58:23;16.00;99.90
7004;DHT22;3542;48.812;9.146;2022-09-24T16:00:50;16.00;99.90
7004;DHT22;3542;48.812;9.146;2022-09-24T16:03:18;16.00;99.90
7004;DHT22;3542;48.812;9.146;2022-09-24T16:05:45;15.90;99.90
7004;DHT22;3542;48.812;9.146;2022-09-24T16:08:10;15.90;99.90
7004;DHT22;3542;48.812;9.146;2022-09-24T16:10:36;15.90;99.90
7004;DHT22;3542;48.812;9.146;2022-09-24T16:13:01;15.80;99.90
7004;DHT22;3542;48.812;9.146;2022-09-24T16:15:27;15.80;99.90
7004;DHT22;3542;48.812;9.146;2022-09-24T16:17:53;15.70;99.90
7004;DHT22;3542;48.812;9.146;2022-09-24T16:20:18;15.70;99.90
7004;DHT22;3542;48.812;9.146;2022-09-24T16:22:44;15.70;99.90
7004;DHT22;3542;48.812;9.146;2022-09-24T16:25:10;15.70;99.90
7004;DHT22;3542;48.812;9.146;2022-09-24T16:27:35;15.60;99.90
7004;DHT22;3542;48.812;9.146;2022-09-24T16:30:03;15.60;99.90
7004;DHT22;3542;48.812;9.146;2022-09-24T16:32:29;15.60;99.90
7004;DHT22;3542;48.812;9.146;2022-09-24T16:34:54;15.50;99.90
7004;DHT22;3542;48.812;9.146;2022-09-24T16:37:21;15.50;99.90
7004;DHT22;3542;48.812;9.146;2022-09-24T16:39:47;15.50;99.90
7004;DHT22;3542;48.812;9.146;2022-09-24T16:42:12;15.50;99.90
7004;DHT22;3542;48.812;9.146;2022-09-24T16:44:38;15.40;99.90
7004;DHT22;3542;48.812;9.146;2022-09-24T16:47:03;15.40;99.90
7004;DHT22;3542;48.812;9.146;2022-09-24T16:49:29;15.40;99.90
7004;DHT22;3542;48.812;9.146;2022-09-24T16:51:54;15.30;99.90
7004;DHT22;3542;48.812;9.146;2022-09-24T16:54:20;15.30;99.90
7004;DHT22;3542;48.812;9.146;2022-09-24T16:56:50;15.20;99.90
7004;DHT22;3542;48.812;9.146;2022-09-24T16:59:17;15.20;99.90
7004;DHT22;3542;48.812;9.146;2022-09-24T17:01:43;15.10;99.90
7004;DHT22;3542;48.812;9.146;2022-09-24T17:04:09;15.10;99.90
7004;DHT22;3542;48.812;9.146;2022-09-24T17:06:35;15.10;99.90
7004;DHT22;3542;48.812;9.146;2022-09-24T17:09:01;15.10;99.90
7004;DHT22;3542;48.812;9.146;2022-09-24T17:11:45;15.00;99.90
7004;DHT22;3542;48.812;9.146;2022-09-24T17:14:12;15.00;99.90
7004;DHT22;3542;48.812;9.146;2022-09-24T17:16:39;14.90;99.90
7004;DHT22;3542;48.812;9.146;2022-09-24T17:19:05;14.90;99.90
7004;DHT22;3542;48.812;9.146;2022-09-24T17:21:32;14.90;99.90
7004;DHT22;3542;48.812;9.146;2022-09-24T17:23:58;14.90;99.90
7004;DHT22;3542;48.812;9.146;2022-09-24T17:26:24;14.90;99.90
7004;DHT22;3542;48.812;9.146;2022-09-24T17:28:51;14.80;99.90
7004;DHT22;3542;48.812;9.146;2022-09-24T17:31:18;14.80;99.90
7004;DHT22;3542;48.812;9.146;2022-09-24T17:34:04;14.80;99.90
7004;DHT22;3542;48.812;9.146;2022-09-24T17:36:31;14.80;99.90
7004;DHT22;3542;48.812;9.146;2022-09-24T17:38:57;14.70;99.90
7004;DHT22;3542;48.812;9.146;2022-09-24T17:41:27;14.70;99.90
7004;DHT22;3542;48.812;9.146;2022-09-24T17:43:56;14.60;99.90
7004;DHT22;3542;48.812;9.146;2022-09-24T17:46:23;14.60;99.90
7004;DHT22;3542;48.812;9.146;2022-09-24T17:48:53;14.50;99.90
7004;DHT22;3542;48.812;9.146;2022-09-24T17:51:21;14.50;99.90
7004;DHT22;3542;48.812;9.146;2022-09-24T17:53:48;14.50;99.90
7004;DHT22;3542;48.812;9.146;2022-09-24T17:56:15;14.50;99.90
7004;DHT22;3542;48.812;9.146;2022-09-24T17:58:43;14.50;99.90
7004;DHT22;3542;48.812;9.146;2022-09-24T18:01:11;14.40;99.90
7004;DHT22;3542;48.812;9.146;2022-09-24T18:03:37;14.40;99.90
7004;DHT22;3542;48.812;9.146;2022-09-24T18:06:05;14.40;99.90
7004;DHT22;3542;48.812;9.146;2022-09-24T18:08:35;14.40;99.90
7004;DHT22;3542;48.812;9.146;2022-09-24T18:11:07;14.40;99.90
7004;DHT22;3542;48.812;9.146;2022-09-24T18:13:33;14.30;99.90
7004;DHT22;3542;48.812;9.146;2022-09-24T18:16:07;14.30;99.90
7004;DHT22;3542;48.812;9.146;2022-09-24T18:18:33;14.30;99.90
7004;DHT22;3542;48.812;9.146;2022-09-24T18:21:03;14.30;99.90
7004;DHT22;3542;48.812;9.146;2022-09-24T18:23:29;14.30;99.90
7004;DHT22;3542;48.812;9.146;2022-09-24T18:26:12;14.20;99.90
7004;DHT22;3542;48.812;9.146;2022-09-24T18:28:39;14.20;99.90
7004;DHT22;3542;48.812;9.146;2022-09-24T18:31:07;14.20;99.90
7004;DHT22;3542;48.812;9.146;2022-09-24T18:33:34;14.20;99.90
7004;DHT22;3542;48.812;9.146;2022-09-24T18:36:04;14.20;99.90
7004;DHT22;3542;48.812;9.146;2022-09-24T18:38:30;14.10;99.90
7004;DHT22;3542;48.812;9.146;2022-09-24T18:41:07;14.10;99.90
7004;DHT22;3542;48.812;9.146;2022-09-24T18:43:33;14.10;99.90
7004;DHT22;3542;48.812;9.146;2022-09-24T18:46:07;14.00;99.90
7004;DHT22;3542;48.812;9.146;2022-09-24T18:48:33;14.00;99.90
7004;DHT22;3542;48.812;9.146;2022-09-24T18:50:59;14.00;99.90
7004;DHT22;3542;48.812;9.146;2022-09-24T18:53:26;14.00;99.90
7004;DHT22;3542;48.812;9.146;2022-09-24T18:55:52;14.00;99.90
7004;DHT22;3542;48.812;9.146;2022-09-24T18:58:18;13.90;99.90
7004;DHT22;3542;48.812;9.146;2022-09-24T19:00:43;13.90;99.90
7004;DHT22;3542;48.812;9.146;2022-09-24T19:03:20;13.90;99.90
7004;DHT22;3542;48.812;9.146;2022-09-24T19:05:47;13.90;99.90
7004;DHT22;3542;48.812;9.146;2022-09-24T19:08:13;13.80;99.90
7004;DHT22;3542;48.812;9.146;2022-09-24T19:10:39;13.90;99.90
7004;DHT22;3542;48.812;9.146;2022-09-24T19:13:05;13.80;99.90
7004;DHT22;3542;48.812;9.146;2022-09-24T19:15:34;13.80;99.90
7004;DHT22;3542;48.812;9.146;2022-09-24T19:18:01;13.80;99.90
7004;DHT22;3542;48.812;9.146;2022-09-24T19:20:28;13.70;99.90